sensor_id;sensor_type;location;lat;lon;timestamp;pressure;altitude;pressure_sealevel;temperature;humidity
75521;BME280;64102;48.628;9.002;2023-04-15T00:01:23;95109.41;;;0.61;90.29
75521;BME280;64102;48.628;9.002;2023-04-15T00:03:53;95103.59;;;0.46;90.72
75521;BME280;64102;48.628;9.002;2023-04-15T00:06:21;95103.09;;;0.41;91.26
75521;BME280;64102;48.628;9.002;2023-04-15T00:08:48;95101.19;;;0.44;90.91
75521;BME280;64102;48.628;9.002;2023-04-15T00:11:14;95093.47;;;0.46;90.94
75521;BME280;64102;48.628;9.002;2023-04-15T00:13:40;95099.66;;;0.42;91.31
75521;BME280;64102;48.628;9.002;2023-04-15T00:16:07;95097.13;;;0.42;91.17
75521;BME280;64102;48.628;9.002;2023-04-15T00:18:33;95093.47;;;0.46;91.09
75521;BME280;64102;48.628;9.002;2023-04-15T00:20:58;95099.56;;;0.43;91.50
75521;BME280;64102;48.628;9.002;2023-04-15T00:23:24;95098.03;;;0.41;91.79
75521;BME280;64102;48.628;9.002;2023-04-15T00:25:50;95096.00;;;0.21;91.46
75521;BME280;64102;48.628;9.002;2023-04-15T00:28:16;95102.13;;;-0.09;92.28
75521;BME280;64102;48.628;9.002;2023-04-15T00:30:42;95103.50;;;-0.30;93.25
75521;BME280;64102;48.628;9.002;2023-04-15T00:33:07;95103.91;;;-0.36;94.50
75521;BME280;64102;48.628;9.002;2023-04-15T00:35:32;95093.91;;;-0.12;95.68
75521;BME280;64102;48.628;9.002;2023-04-15T00:37:58;95085.63;;;-0.14;95.13
75521;BME280;64102;48.628;9.002;2023-04-15T00:40:24;95088.25;;;0.10;94.21
75521;BME280;64102;48.628;9.002;2023-04-15T00:42:50;95092.81;;;0.05;94.34
75521;BME280;64102;48.628;9.002;2023-04-15T00:45:16;95090.63;;;0.13;93.73
75521;BME280;64102;48.628;9.002;2023-04-15T00:47:42;95088.78;;;0.15;93.09
75521;BME280;64102;48.628;9.002;2023-04-15T00:50:08;95095.06;;;0.09;92.79
75521;BME280;64102;48.628;9.002;2023-04-15T00:52:34;95096.16;;;0.05;92.72
75521;BME280;64102;48.628;9.002;2023-04-15T00:54:59;95100.03;;;-0.02;93.35
75521;BME280;64102;48.628;9.002;2023-04-15T00:57:27;95102.25;;;-0.10;93.45
75521;BME280;64102;48.628;9.002;2023-04-15T00:59:54;95103.28;;;0.00;93.62
75521;BME280;64102;48.628;9.002;2023-04-15T01:02:21;95098.00;;;0.03;92.64
75521;BME280;64102;48.628;9.002;2023-04-15T01:04:46;95096.38;;;0.02;93.36
75521;BME280;64102;48.628;9.002;2023-04-15T01:07:12;95094.06;;;-0.01;93.46
75521;BME280;64102;48.628;9.002;2023-04-15T01:09:38;95103.47;;;-0.03;93.32
75521;BME280;64102;48.628;9.002;2023-04-15T01:12:03;95099.00;;;-0.12;93.31
75521;BME280;64102;48.628;9.002;2023-04-15T01:14:30;95096.97;;;-0.20;93.64
75521;BME280;64102;48.628;9.002;2023-04-15T01:16:56;95102.72;;;-0.18;93.38
75521;BME280;64102;48.628;9.002;2023-04-15T01:19:21;95100.31;;;-0.19;93.73
75521;BME280;64102;48.628;9.002;2023-04-15T01:21:47;95099.78;;;-0.24;93.25
75521;BME280;64102;48.628;9.002;2023-04-15T01:24:16;95092.50;;;-0.16;93.99
75521;BME280;64102;48.628;9.002;2023-04-15T01:26:42;95093.91;;;-0.12;93.15
75521;BME280;64102;48.628;9.002;2023-04-15T01:29:07;95095.25;;;-0.07;93.14
75521;BME280;64102;48.628;9.002;2023-04-15T01:31:33;95097.78;;;-0.07;92.60
75521;BME280;64102;48.628;9.002;2023-04-15T01:33:59;95096.06;;;-0.06;92.63
75521;BME280;64102;48.628;9.002;2023-04-15T01:36:25;95095.75;;;-0.14;92.84
75521;BME280;64102;48.628;9.002;2023-04-15T01:38:50;95096.63;;;-0.28;93.54
75521;BME280;64102;48.628;9.002;2023-04-15T01:41:15;95095.00;;;-0.29;93.78
75521;BME280;64102;48.628;9.002;2023-04-15T01:43:41;95091.56;;;-0.28;93.84
75521;BME280;64102;48.628;9.002;2023-04-15T01:46:06;95094.09;;;-0.28;94.22
75521;BME280;64102;48.628;9.002;2023-04-15T01:48:32;95089.03;;;-0.28;93.85
75521;BME280;64102;48.628;9.002;2023-04-15T01:50:58;95091.41;;;-0.39;93.80
75521;BME280;64102;48.628;9.002;2023-04-15T01:53:24;95091.34;;;-0.37;94.84
75521;BME280;64102;48.628;9.002;2023-04-15T01:55:50;95084.53;;;-0.37;94.76
75521;BME280;64102;48.628;9.002;2023-04-15T01:58:16;95076.75;;;-0.61;94.33
75521;BME280;64102;48.628;9.002;2023-04-15T02:00:42;95084.69;;;-0.53;95.23
75521;BME280;64102;48.628;9.002;2023-04-15T02:03:08;95079.59;;;-0.65;94.27
75521;BME280;64102;48.628;9.002;2023-04-15T02:05:34;95080.19;;;-0.88;95.03
75521;BME280;64102;48.628;9.002;2023-04-15T02:07:59;95085.09;;;-0.85;95.17
75521;BME280;64102;48.628;9.002;2023-04-15T02:10:25;95079.38;;;-0.89;95.34
75521;BME280;64102;48.628;9.002;2023-04-15T02:12:50;95078.13;;;-0.96;95.08
75521;BME280;64102;48.628;9.002;2023-04-15T02:15:15;95080.41;;;-1.06;95.78
75521;BME280;64102;48.628;9.002;2023-04-15T02:17:41;95078.28;;;-1.12;96.57
75521;BME280;64102;48.628;9.002;2023-04-15T02:20:10;95079.00;;;-1.24;96.51
75521;BME280;64102;48.628;9.002;2023-04-15T02:22:36;95069.88;;;-1.12;97.67
75521;BME280;64102;48.628;9.002;2023-04-15T02:25:01;95078.50;;;-1.02;96.75
75521;BME280;64102;48.628;9.002;2023-04-15T02:27:27;95079.03;;;-0.97;96.60
75521;BME280;64102;48.628;9.002;2023-04-15T02:29:53;95073.81;;;-0.94;96.46
75521;BME280;64102;48.628;9.002;2023-04-15T02:32:18;95068.81;;;-0.96;96.39
75521;BME280;64102;48.628;9.002;2023-04-15T02:34:45;95074.59;;;-0.94;96.43
75521;BME280;64102;48.628;9.002;2023-04-15T02:37:11;95069.22;;;-1.16;96.68
75521;BME280;64102;48.628;9.002;2023-04-15T02:39:37;95071.03;;;-1.04;96.37
75521;BME280;64102;48.628;9.002;2023-04-15T02:42:03;95072.88;;;-0.93;96.20
75521;BME280;64102;48.628;9.002;2023-04-15T02:44:29;95070.78;;;-0.86;96.37
75521;BME280;64102;48.628;9.002;2023-04-15T02:46:55;95074.09;;;-0.72;95.50
75521;BME280;64102;48.628;9.002;2023-04-15T02:49:20;95081.81;;;-0.61;95.03
75521;BME280;64102;48.628;9.002;2023-04-15T02:51:47;95078.41;;;-0.60;95.25
75521;BME280;64102;48.628;9.002;2023-04-15T02:54:15;95083.75;;;-0.64;94.69
75521;BME280;64102;48.628;9.002;2023-04-15T02:56:41;95086.97;;;-0.62;94.57
75521;BME280;64102;48.628;9.002;2023-04-15T02:59:06;95078.16;;;-0.69;94.82
75521;BME280;64102;48.628;9.002;2023-04-15T03:01:31;95078.72;;;-0.78;94.83
75521;BME280;64102;48.628;9.002;2023-04-15T03:03:57;95086.19;;;-0.89;94.77
75521;BME280;64102;48.628;9.002;2023-04-15T03:06:22;95079.50;;;-1.05;95.88
75521;BME280;64102;48.628;9.002;2023-04-15T03:08:49;95085.06;;;-1.12;95.99
75521;BME280;64102;48.628;9.002;2023-04-15T03:11:14;95085.06;;;-1.12;96.09
75521;BME280;64102;48.628;9.002;2023-04-15T03:13:41;95081.31;;;-1.07;95.54
75521;BME280;64102;48.628;9.002;2023-04-15T03:16:07;95081.78;;;-1.00;95.40
75521;BME280;64102;48.628;9.002;2023-04-15T03:18:33;95082.66;;;-1.01;95.43
75521;BME280;64102;48.628;9.002;2023-04-15T03:20:58;95073.69;;;-0.93;94.64
75521;BME280;64102;48.628;9.002;2023-04-15T03:23:24;95078.47;;;-0.88;94.54
75521;BME280;64102;48.628;9.002;2023-04-15T03:25:49;95072.59;;;-0.88;94.68
75521;BME280;64102;48.628;9.002;2023-04-15T03:28:15;95068.47;;;-0.89;94.99
75521;BME280;64102;48.628;9.002;2023-04-15T03:30:40;95071.00;;;-0.89;95.18
75521;BME280;64102;48.628;9.002;2023-04-15T03:33:06;95064.59;;;-0.95;95.38
75521;BME280;64102;48.628;9.002;2023-04-15T03:35:33;95070.25;;;-0.92;95.07
75521;BME280;64102;48.628;9.002;2023-04-15T03:37:58;95068.34;;;-0.88;94.71
75521;BME280;64102;48.628;9.002;2023-04-15T03:40:23;95063.00;;;-0.83;94.24
75521;BME280;64102;48.628;9.002;2023-04-15T03:42:49;95067.06;;;-0.81;94.58
75521;BME280;64102;48.628;9.002;2023-04-15T03:45:15;95065.78;;;-0.74;94.26
75521;BME280;64102;48.628;9.002;2023-04-15T03:47:40;95062.44;;;-0.74;93.86
75521;BME280;64102;48.628;9.002;2023-04-15T03:50:06;95070.19;;;-0.90;94.21
75521;BME280;64102;48.628;9.002;2023-04-15T03:52:32;95065.97;;;-1.04;94.48
75521;BME280;64102;48.628;9.002;2023-04-15T03:54:57;95065.69;;;-0.99;95.09
75521;BME280;64102;48.628;9.002;2023-04-15T03:57:23;95069.72;;;-0.97;95.27
75521;BME280;64102;48.628;9.002;2023-04-15T03:59:48;95064.28;;;-0.91;95.29
75521;BME280;64102;48.628;9.002;2023-04-15T04:02:13;95062.38;;;-0.87;94.66
75521;BME280;64102;48.628;9.002;2023-04-15T04:04:39;95065.28;;;-0.93;94.32
75521;BME280;64102;48.628;9.002;2023-04-15T04:07:04;95062.69;;;-1.06;95.07
75521;BME280;64102;48.628;9.002;2023-04-15T04:09:30;95062.88;;;-1.09;95.22
75521;BME280;64102;48.628;9.002;2023-04-15T04:11:55;95065.03;;;-1.03;94.99
75521;BME280;64102;48.628;9.002;2023-04-15T04:14:22;95057.25;;;-1.00;94.99
75521;BME280;64102;48.628;9.002;2023-04-15T04:16:53;95060.41;;;-0.96;94.64
75521;BME280;64102;48.628;9.002;2023-04-15T04:19:18;95071.97;;;-0.92;94.89
75521;BME280;64102;48.628;9.002;2023-04-15T04:21:44;95070.34;;;-0.93;94.48
75521;BME280;64102;48.628;9.002;2023-04-15T04:24:09;95064.03;;;-1.00;94.96
75521;BME280;64102;48.628;9.002;2023-04-15T04:26:35;95075.88;;;-1.01;94.76
75521;BME280;64102;48.628;9.002;2023-04-15T04:29:00;95074.72;;;-0.95;95.47
75521;BME280;64102;48.628;9.002;2023-04-15T04:31:25;95063.69;;;-0.94;95.25
75521;BME280;64102;48.628;9.002;2023-04-15T04:33:51;95076.41;;;-0.96;95.50
75521;BME280;64102;48.628;9.002;2023-04-15T04:36:16;95077.53;;;-1.00;94.70
75521;BME280;64102;48.628;9.002;2023-04-15T04:38:41;95074.78;;;-0.97;95.71
75521;BME280;64102;48.628;9.002;2023-04-15T04:41:07;95076.75;;;-0.87;94.74
75521;BME280;64102;48.628;9.002;2023-04-15T04:43:32;95076.91;;;-0.76;94.18
75521;BME280;64102;48.628;9.002;2023-04-15T04:45:57;95074.19;;;-0.73;94.24
75521;BME280;64102;48.628;9.002;2023-04-15T04:48:23;95077.50;;;-0.85;94.27
75521;BME280;64102;48.628;9.002;2023-04-15T04:50:48;95080.03;;;-0.85;94.12
75521;BME280;64102;48.628;9.002;2023-04-15T04:53:14;95087.16;;;-0.92;94.23
75521;BME280;64102;48.628;9.002;2023-04-15T04:55:39;95087.44;;;-0.97;95.16
75521;BME280;64102;48.628;9.002;2023-04-15T04:58:04;95088.00;;;-1.06;95.69
75521;BME280;64102;48.628;9.002;2023-04-15T05:00:30;95085.13;;;-1.00;95.14
75521;BME280;64102;48.628;9.002;2023-04-15T05:02:55;95087.69;;;-0.87;95.21
75521;BME280;64102;48.628;9.002;2023-04-15T05:05:21;95096.50;;;-0.66;94.18
75521;BME280;64102;48.628;9.002;2023-04-15T05:07:46;95096.13;;;-0.33;92.61
75521;BME280;64102;48.628;9.002;2023-04-15T05:10:13;95102.66;;;-0.04;90.12
75521;BME280;64102;48.628;9.002;2023-04-15T05:12:39;95093.75;;;0.16;88.53
75521;BME280;64102;48.628;9.002;2023-04-15T05:15:05;95105.34;;;0.33;87.41
75521;BME280;64102;48.628;9.002;2023-04-15T05:17:30;95097.22;;;0.53;86.39
75521;BME280;64102;48.628;9.002;2023-04-15T05:19:57;95094.72;;;1.02;85.04
75521;BME280;64102;48.628;9.002;2023-04-15T05:22:22;95096.00;;;1.44;83.20
75521;BME280;64102;48.628;9.002;2023-04-15T05:24:49;95093.16;;;1.84;81.36
75521;BME280;64102;48.628;9.002;2023-04-15T05:27:15;95097.91;;;2.23;79.56
75521;BME280;64102;48.628;9.002;2023-04-15T05:29:40;95091.81;;;2.48;77.48
75521;BME280;64102;48.628;9.002;2023-04-15T05:32:05;95094.13;;;2.73;76.33
75521;BME280;64102;48.628;9.002;2023-04-15T05:34:31;95094.81;;;3.20;74.31
75521;BME280;64102;48.628;9.002;2023-04-15T05:36:56;95098.25;;;3.84;72.07
75521;BME280;64102;48.628;9.002;2023-04-15T05:39:22;95099.03;;;4.37;69.58
75521;BME280;64102;48.628;9.002;2023-04-15T05:41:47;95094.78;;;4.68;68.31
75521;BME280;64102;48.628;9.002;2023-04-15T05:44:12;95095.56;;;4.99;67.44
75521;BME280;64102;48.628;9.002;2023-04-15T05:46:38;95096.88;;;5.33;65.45
75521;BME280;64102;48.628;9.002;2023-04-15T05:49:03;95093.03;;;5.67;64.19
75521;BME280;64102;48.628;9.002;2023-04-15T05:51:28;95090.25;;;5.99;62.96
75521;BME280;64102;48.628;9.002;2023-04-15T05:53:54;95095.47;;;5.78;62.33
75521;BME280;64102;48.628;9.002;2023-04-15T05:56:19;95100.91;;;5.26;65.17
75521;BME280;64102;48.628;9.002;2023-04-15T05:58:45;95104.22;;;4.77;67.21
75521;BME280;64102;48.628;9.002;2023-04-15T06:01:10;95103.16;;;4.28;70.16
75521;BME280;64102;48.628;9.002;2023-04-15T06:03:36;95110.44;;;4.33;70.23
75521;BME280;64102;48.628;9.002;2023-04-15T06:06:02;95106.09;;;4.33;71.00
75521;BME280;64102;48.628;9.002;2023-04-15T06:08:27;95108.72;;;4.01;72.34
75521;BME280;64102;48.628;9.002;2023-04-15T06:10:53;95108.00;;;4.11;71.75
75521;BME280;64102;48.628;9.002;2023-04-15T06:13:18;95105.88;;;4.36;71.40
75521;BME280;64102;48.628;9.002;2023-04-15T06:15:44;95101.69;;;4.56;69.82
75521;BME280;64102;48.628;9.002;2023-04-15T06:18:09;95107.38;;;4.60;70.27
75521;BME280;64102;48.628;9.002;2023-04-15T06:20:35;95113.69;;;4.65;70.76
75521;BME280;64102;48.628;9.002;2023-04-15T06:23:01;95107.50;;;5.28;68.96
75521;BME280;64102;48.628;9.002;2023-04-15T06:25:26;95116.34;;;5.74;68.25
75521;BME280;64102;48.628;9.002;2023-04-15T06:27:51;95113.16;;;6.29;66.70
75521;BME280;64102;48.628;9.002;2023-04-15T06:30:17;95110.28;;;7.08;62.21
75521;BME280;64102;48.628;9.002;2023-04-15T06:32:42;95111.34;;;7.42;61.00
75521;BME280;64102;48.628;9.002;2023-04-15T06:35:08;95112.47;;;7.03;61.30
75521;BME280;64102;48.628;9.002;2023-04-15T06:37:33;95111.25;;;6.51;63.95
75521;BME280;64102;48.628;9.002;2023-04-15T06:39:59;95121.53;;;6.22;66.30
75521;BME280;64102;48.628;9.002;2023-04-15T06:42:24;95116.75;;;6.65;64.28
75521;BME280;64102;48.628;9.002;2023-04-15T06:44:50;95121.31;;;6.81;63.21
75521;BME280;64102;48.628;9.002;2023-04-15T06:47:15;95129.00;;;7.90;60.37
75521;BME280;64102;48.628;9.002;2023-04-15T06:49:41;95131.63;;;8.26;58.17
75521;BME280;64102;48.628;9.002;2023-04-15T06:52:07;95127.41;;;8.60;57.76
75521;BME280;64102;48.628;9.002;2023-04-15T06:54:33;95119.50;;;9.39;55.95
75521;BME280;64102;48.628;9.002;2023-04-15T06:56:59;95125.66;;;9.46;55.01
75521;BME280;64102;48.628;9.002;2023-04-15T06:59:24;95123.94;;;10.61;51.44
75521;BME280;64102;48.628;9.002;2023-04-15T07:01:51;95119.66;;;11.09;50.41
75521;BME280;64102;48.628;9.002;2023-04-15T07:04:16;95117.75;;;12.20;46.94
75521;BME280;64102;48.628;9.002;2023-04-15T07:06:42;95116.00;;;12.57;46.08
75521;BME280;64102;48.628;9.002;2023-04-15T07:09:07;95117.66;;;12.73;45.67
75521;BME280;64102;48.628;9.002;2023-04-15T07:11:32;95114.03;;;12.45;47.13
75521;BME280;64102;48.628;9.002;2023-04-15T07:13:58;95113.28;;;13.40;45.88
75521;BME280;64102;48.628;9.002;2023-04-15T07:16:23;95117.00;;;13.82;42.53
75521;BME280;64102;48.628;9.002;2023-04-15T07:18:48;95103.53;;;14.71;40.43
75521;BME280;64102;48.628;9.002;2023-04-15T07:21:14;95114.81;;;14.21;43.04
75521;BME280;64102;48.628;9.002;2023-04-15T07:23:39;95110.19;;;14.81;40.82
75521;BME280;64102;48.628;9.002;2023-04-15T07:26:04;95112.41;;;15.11;40.68
75521;BME280;64102;48.628;9.002;2023-04-15T07:28:30;95109.88;;;16.00;37.21
75521;BME280;64102;48.628;9.002;2023-04-15T07:30:55;95117.81;;;15.85;38.13
75521;BME280;64102;48.628;9.002;2023-04-15T07:33:21;95111.59;;;15.39;37.93
75521;BME280;64102;48.628;9.002;2023-04-15T07:35:47;95111.13;;;16.17;37.46
75521;BME280;64102;48.628;9.002;2023-04-15T07:38:12;95111.81;;;17.31;33.96
75521;BME280;64102;48.628;9.002;2023-04-15T07:40:38;95114.41;;;17.24;36.31
75521;BME280;64102;48.628;9.002;2023-04-15T07:43:04;95109.69;;;18.23;32.67
75521;BME280;64102;48.628;9.002;2023-04-15T07:45:30;95104.69;;;18.53;31.10
75521;BME280;64102;48.628;9.002;2023-04-15T07:47:56;95111.84;;;18.96;30.81
75521;BME280;64102;48.628;9.002;2023-04-15T07:50:21;95113.59;;;19.02;30.73
75521;BME280;64102;48.628;9.002;2023-04-15T07:52:48;95109.06;;;17.83;33.31
75521;BME280;64102;48.628;9.002;2023-04-15T07:55:13;95107.34;;;17.58;34.24
75521;BME280;64102;48.628;9.002;2023-04-15T07:57:40;95110.66;;;17.00;36.05
75521;BME280;64102;48.628;9.002;2023-04-15T08:00:06;95106.44;;;16.93;35.87
75521;BME280;64102;48.628;9.002;2023-04-15T08:02:32;95100.78;;;18.94;32.42
75521;BME280;64102;48.628;9.002;2023-04-15T08:04:57;95103.72;;;20.01;29.77
75521;BME280;64102;48.628;9.002;2023-04-15T08:07:24;95107.34;;;19.03;31.43
75521;BME280;64102;48.628;9.002;2023-04-15T08:09:49;95104.16;;;19.98;30.05
75521;BME280;64102;48.628;9.002;2023-04-15T08:12:15;95101.91;;;21.15;27.57
75521;BME280;64102;48.628;9.002;2023-04-15T08:14:40;95104.94;;;21.81;24.75
75521;BME280;64102;48.628;9.002;2023-04-15T08:17:06;95098.91;;;20.17;28.43
75521;BME280;64102;48.628;9.002;2023-04-15T08:19:31;95106.22;;;18.67;30.80
75521;BME280;64102;48.628;9.002;2023-04-15T08:21:57;95102.25;;;17.82;31.92
75521;BME280;64102;48.628;9.002;2023-04-15T08:24:23;95113.44;;;16.99;31.92
75521;BME280;64102;48.628;9.002;2023-04-15T08:26:50;95109.66;;;15.88;33.73
75521;BME280;64102;48.628;9.002;2023-04-15T08:29:16;95110.81;;;16.46;35.65
75521;BME280;64102;48.628;9.002;2023-04-15T08:31:41;95106.63;;;16.59;31.64
75521;BME280;64102;48.628;9.002;2023-04-15T08:34:06;95110.44;;;15.48;33.97
75521;BME280;64102;48.628;9.002;2023-04-15T08:36:32;95111.00;;;15.71;34.08
75521;BME280;64102;48.628;9.002;2023-04-15T08:38:57;95116.88;;;16.60;33.08
75521;BME280;64102;48.628;9.002;2023-04-15T08:41:25;95107.78;;;15.69;35.45
75521;BME280;64102;48.628;9.002;2023-04-15T08:44:00;95117.81;;;16.46;34.65
75521;BME280;64102;48.628;9.002;2023-04-15T08:46:32;95126.44;;;16.46;33.96
75521;BME280;64102;48.628;9.002;2023-04-15T08:49:03;95113.09;;;16.08;32.85
75521;BME280;64102;48.628;9.002;2023-04-15T08:51:29;95118.72;;;16.12;32.47
75521;BME280;64102;48.628;9.002;2023-04-15T08:53:55;95120.03;;;16.55;32.15
75521;BME280;64102;48.628;9.002;2023-04-15T08:56:23;95122.28;;;16.78;31.90
75521;BME280;64102;48.628;9.002;2023-04-15T08:58:49;95117.53;;;15.60;34.35
75521;BME280;64102;48.628;9.002;2023-04-15T09:01:16;95118.34;;;14.77;36.68
75521;BME280;64102;48.628;9.002;2023-04-15T09:03:41;95113.56;;;15.37;36.23
75521;BME280;64102;48.628;9.002;2023-04-15T09:06:08;95119.00;;;15.42;36.21
75521;BME280;64102;48.628;9.002;2023-04-15T09:08:33;95117.88;;;15.98;34.27
75521;BME280;64102;48.628;9.002;2023-04-15T09:11:04;95115.44;;;15.90;34.27
75521;BME280;64102;48.628;9.002;2023-04-15T09:13:30;95120.16;;;16.15;35.46
75521;BME280;64102;48.628;9.002;2023-04-15T09:15:56;95123.09;;;15.23;33.64
75521;BME280;64102;48.628;9.002;2023-04-15T09:18:32;95119.50;;;15.24;36.10
75521;BME280;64102;48.628;9.002;2023-04-15T09:21:08;95134.78;;;15.40;35.11
75521;BME280;64102;48.628;9.002;2023-04-15T09:23:36;95131.72;;;16.05;32.92
75521;BME280;64102;48.628;9.002;2023-04-15T09:26:02;95133.47;;;15.92;34.72
75521;BME280;64102;48.628;9.002;2023-04-15T09:28:28;95136.50;;;16.63;33.38
75521;BME280;64102;48.628;9.002;2023-04-15T09:30:58;95137.50;;;17.01;31.91
75521;BME280;64102;48.628;9.002;2023-04-15T09:33:24;95135.09;;;17.26;33.62
75521;BME280;64102;48.628;9.002;2023-04-15T09:36:04;95144.72;;;16.79;31.07
75521;BME280;64102;48.628;9.002;2023-04-15T09:38:30;95139.53;;;16.05;32.14
75521;BME280;64102;48.628;9.002;2023-04-15T09:40:57;95138.97;;;15.69;34.10
75521;BME280;64102;48.628;9.002;2023-04-15T09:43:36;95143.63;;;15.80;31.54
75521;BME280;64102;48.628;9.002;2023-04-15T09:46:03;95137.19;;;15.76;30.83
75521;BME280;64102;48.628;9.002;2023-04-15T09:48:28;95142.00;;;15.73;29.12
75521;BME280;64102;48.628;9.002;2023-04-15T09:50:59;95143.59;;;15.39;32.01
75521;BME280;64102;48.628;9.002;2023-04-15T09:53:25;95145.53;;;15.31;33.02
75521;BME280;64102;48.628;9.002;2023-04-15T09:55:56;95147.66;;;14.93;32.46
75521;BME280;64102;48.628;9.002;2023-04-15T09:58:26;95153.00;;;14.85;32.47
75521;BME280;64102;48.628;9.002;2023-04-15T10:00:53;95150.34;;;15.34;34.36
75521;BME280;64102;48.628;9.002;2023-04-15T10:03:22;95149.09;;;15.92;30.71
75521;BME280;64102;48.628;9.002;2023-04-15T10:05:49;95141.75;;;16.08;31.80
75521;BME280;64102;48.628;9.002;2023-04-15T10:08:20;95143.31;;;15.28;33.88
75521;BME280;64102;48.628;9.002;2023-04-15T10:10:46;95154.84;;;14.91;32.63
75521;BME280;64102;48.628;9.002;2023-04-15T10:13:17;95155.84;;;15.17;31.82
75521;BME280;64102;48.628;9.002;2023-04-15T10:15:44;95153.78;;;15.41;30.18
75521;BME280;64102;48.628;9.002;2023-04-15T10:18:15;95150.03;;;16.32;30.10
75521;BME280;64102;48.628;9.002;2023-04-15T10:20:41;95148.16;;;15.65;32.42
75521;BME280;64102;48.628;9.002;2023-04-15T10:23:08;95148.81;;;16.34;34.27
75521;BME280;64102;48.628;9.002;2023-04-15T10:25:34;95145.91;;;16.83;29.83
75521;BME280;64102;48.628;9.002;2023-04-15T10:28:01;95158.75;;;16.85;27.56
75521;BME280;64102;48.628;9.002;2023-04-15T10:30:27;95155.00;;;18.42;26.67
75521;BME280;64102;48.628;9.002;2023-04-15T10:32:53;95151.34;;;18.56;26.15
75521;BME280;64102;48.628;9.002;2023-04-15T10:35:20;95158.97;;;17.03;27.97
75521;BME280;64102;48.628;9.002;2023-04-15T10:37:46;95169.91;;;15.98;30.65
75521;BME280;64102;48.628;9.002;2023-04-15T10:42:59;95169.38;;;15.62;30.16
75521;BME280;64102;48.628;9.002;2023-04-15T10:45:35;95164.88;;;14.72;32.10
75521;BME280;64102;48.628;9.002;2023-04-15T10:48:03;95170.19;;;14.28;33.60
75521;BME280;64102;48.628;9.002;2023-04-15T10:50:31;95167.84;;;14.33;33.55
75521;BME280;64102;48.628;9.002;2023-04-15T10:52:57;95171.91;;;14.21;32.99
75521;BME280;64102;48.628;9.002;2023-04-15T10:55:25;95175.31;;;14.37;33.26
75521;BME280;64102;48.628;9.002;2023-04-15T10:57:58;95181.91;;;14.39;30.51
75521;BME280;64102;48.628;9.002;2023-04-15T11:00:27;95188.56;;;14.12;33.82
75521;BME280;64102;48.628;9.002;2023-04-15T11:02:55;95183.72;;;15.02;31.80
75521;BME280;64102;48.628;9.002;2023-04-15T11:08:08;95188.41;;;15.69;29.80
75521;BME280;64102;48.628;9.002;2023-04-15T11:15:29;95194.66;;;17.29;31.63
75521;BME280;64102;48.628;9.002;2023-04-15T11:18:18;95186.13;;;16.54;32.21
75521;BME280;64102;48.628;9.002;2023-04-15T11:20:47;95193.63;;;16.64;31.81
75521;BME280;64102;48.628;9.002;2023-04-15T11:23:36;95194.25;;;17.12;32.82
75521;BME280;64102;48.628;9.002;2023-04-15T11:26:04;95190.16;;;15.96;35.48
75521;BME280;64102;48.628;9.002;2023-04-15T11:28:33;95198.53;;;16.46;32.99
75521;BME280;64102;48.628;9.002;2023-04-15T11:31:09;95195.34;;;15.96;33.16
75521;BME280;64102;48.628;9.002;2023-04-15T11:33:35;95206.50;;;15.84;34.69
75521;BME280;64102;48.628;9.002;2023-04-15T11:36:01;95198.50;;;16.33;34.50
75521;BME280;64102;48.628;9.002;2023-04-15T11:38:27;95204.78;;;15.97;32.20
75521;BME280;64102;48.628;9.002;2023-04-15T11:40:53;95200.16;;;16.47;33.34
75521;BME280;64102;48.628;9.002;2023-04-15T11:43:20;95201.13;;;19.24;31.04
75521;BME280;64102;48.628;9.002;2023-04-15T11:45:48;95199.50;;;19.54;27.02
75521;BME280;64102;48.628;9.002;2023-04-15T11:48:15;95200.19;;;19.86;25.75
75521;BME280;64102;48.628;9.002;2023-04-15T11:50:41;95212.72;;;19.10;29.08
75521;BME280;64102;48.628;9.002;2023-04-15T11:53:08;95212.88;;;16.89;29.82
75521;BME280;64102;48.628;9.002;2023-04-15T11:55:50;95220.75;;;17.22;30.36
75521;BME280;64102;48.628;9.002;2023-04-15T11:58:16;95224.59;;;15.43;32.53
75521;BME280;64102;48.628;9.002;2023-04-15T12:00:58;95221.16;;;15.63;32.56
75521;BME280;64102;48.628;9.002;2023-04-15T12:03:28;95226.75;;;17.69;33.11
75521;BME280;64102;48.628;9.002;2023-04-15T12:11:38;95227.16;;;17.13;34.48
75521;BME280;64102;48.628;9.002;2023-04-15T12:14:24;95227.31;;;16.25;32.79
75521;BME280;64102;48.628;9.002;2023-04-15T12:16:52;95243.09;;;14.84;37.30
75521;BME280;64102;48.628;9.002;2023-04-15T12:21:49;95252.50;;;14.34;35.65
75521;BME280;64102;48.628;9.002;2023-04-15T12:24:19;95256.78;;;14.57;36.66
75521;BME280;64102;48.628;9.002;2023-04-15T12:26:47;95256.75;;;15.56;35.57
75521;BME280;64102;48.628;9.002;2023-04-15T12:29:14;95250.31;;;16.62;33.75
75521;BME280;64102;48.628;9.002;2023-04-15T12:32:07;95252.47;;;15.28;34.48
75521;BME280;64102;48.628;9.002;2023-04-15T12:34:52;95264.03;;;15.46;35.70
75521;BME280;64102;48.628;9.002;2023-04-15T12:37:21;95273.41;;;15.19;34.67
75521;BME280;64102;48.628;9.002;2023-04-15T12:39:48;95279.00;;;15.16;35.76
75521;BME280;64102;48.628;9.002;2023-04-15T12:42:14;95269.22;;;16.36;33.43
75521;BME280;64102;48.628;9.002;2023-04-15T12:44:40;95274.50;;;16.56;34.65
75521;BME280;64102;48.628;9.002;2023-04-15T12:47:07;95272.88;;;16.07;33.21
75521;BME280;64102;48.628;9.002;2023-04-15T12:49:32;95289.63;;;16.80;33.94
75521;BME280;64102;48.628;9.002;2023-04-15T12:51:59;95283.50;;;16.47;33.25
75521;BME280;64102;48.628;9.002;2023-04-15T12:54:25;95290.56;;;17.27;34.66
75521;BME280;64102;48.628;9.002;2023-04-15T12:56:51;95293.91;;;15.78;33.90
75521;BME280;64102;48.628;9.002;2023-04-15T12:59:17;95290.91;;;16.50;33.74
75521;BME280;64102;48.628;9.002;2023-04-15T13:01:43;95293.00;;;16.27;33.59
75521;BME280;64102;48.628;9.002;2023-04-15T13:04:09;95293.13;;;16.53;32.31
75521;BME280;64102;48.628;9.002;2023-04-15T13:06:34;95298.25;;;15.99;34.90
75521;BME280;64102;48.628;9.002;2023-04-15T13:09:03;95296.00;;;16.65;32.72
75521;BME280;64102;48.628;9.002;2023-04-15T13:11:29;95298.28;;;15.71;32.58
75521;BME280;64102;48.628;9.002;2023-04-15T13:13:59;95293.41;;;14.98;34.59
75521;BME280;64102;48.628;9.002;2023-04-15T13:16:25;95293.56;;;14.75;35.85
75521;BME280;64102;48.628;9.002;2023-04-15T13:18:51;95290.84;;;15.04;32.18